createdAt,value
2019-03-08T00:02:15.949Z,98573.27
2019-03-08T00:04:47.693Z,98575.89
2019-03-08T00:07:18.882Z,98563.58
2019-03-08T00:09:52.047Z,98576.41
2019-03-08T00:12:25.357Z,98571.28
2019-03-08T00:14:56.486Z,98579.81
2019-03-08T00:17:33.554Z,98560.61
2019-03-08T00:20:12.913Z,98544.64
2019-03-08T00:22:44.564Z,98578.11
2019-03-08T00:25:18.102Z,98567.08
2019-03-08T00:27:49.345Z,98569.76
2019-03-08T00:30:20.537Z,98554.19
2019-03-08T00:32:52.700Z,98549.25
2019-03-08T00:35:23.869Z,98554.05
2019-03-08T00:37:58.639Z,98551.98
2019-03-08T00:40:32.830Z,98552.27
2019-03-08T00:43:05.744Z,98540.72
2019-03-08T00:45:38.599Z,98546.42
2019-03-08T00:48:09.992Z,98530.09
2019-03-08T00:50:41.216Z,98533.83
2019-03-08T00:53:13.168Z,98525.41
2019-03-08T00:55:44.663Z,98521.75
2019-03-08T00:58:15.862Z,98515.33
2019-03-08T01:00:47.992Z,98523.48
2019-03-08T01:03:20.915Z,98535.83
2019-03-08T01:05:53.613Z,98528.23
2019-03-08T01:08:24.815Z,98522.33
2019-03-08T01:10:56.007Z,98522.00
2019-03-08T01:13:29.267Z,98525.55
2019-03-08T01:16:02.720Z,98532.38
2019-03-08T01:18:37.254Z,98527.77
2019-03-08T01:21:10.159Z,98528.27
2019-03-08T01:23:44.962Z,98527.84
2019-03-08T01:26:17.257Z,98530.81
2019-03-08T01:28:48.840Z,98518.77
2019-03-08T01:31:21.688Z,98512.59
2019-03-08T01:33:53.872Z,98511.72
2019-03-08T01:36:26.831Z,98516.04
2019-03-08T01:38:58.846Z,98510.96
2019-03-08T01:41:32.559Z,98505.99
2019-03-08T01:44:06.703Z,98504.83
2019-03-08T01:46:37.948Z,98501.31
2019-03-08T01:49:09.631Z,98500.44
2019-03-08T01:51:40.812Z,98496.66
2019-03-08T01:54:12.260Z,98504.05
2019-03-08T01:56:48.445Z,98497.02
2019-03-08T01:59:22.533Z,98498.86
2019-03-08T02:01:54.736Z,98501.33
2019-03-08T02:04:27.889Z,98492.80
2019-03-08T02:07:02.015Z,98492.41
2019-03-08T02:09:33.431Z,98494.47
2019-03-08T02:12:05.085Z,98481.34
2019-03-08T02:14:36.593Z,98494.94
2019-03-08T02:17:08.144Z,98488.59
2019-03-08T02:19:40.970Z,98486.79
2019-03-08T02:22:14.838Z,98491.65
2019-03-08T02:24:46.505Z,98485.91
2019-03-08T02:27:17.688Z,98497.23
2019-03-08T02:29:49.897Z,98484.03
2019-03-08T02:32:22.041Z,98493.50
2019-03-08T02:34:55.880Z,98493.50
2019-03-08T02:37:30.724Z,98496.77
2019-03-08T02:40:04.637Z,98493.86
2019-03-08T02:42:43.701Z,98499.81
2019-03-08T02:45:16.418Z,98483.71
2019-03-08T02:47:48.477Z,98485.73
2019-03-08T02:50:21.858Z,98470.61
2019-03-08T02:52:56.184Z,98482.69
2019-03-08T02:55:27.569Z,98485.16
2019-03-08T02:58:01.342Z,98477.79
2019-03-08T03:00:38.199Z,98452.42
2019-03-08T03:03:10.820Z,98483.91
2019-03-08T03:05:44.052Z,98486.30
2019-03-08T03:08:16.732Z,98486.77
2019-03-08T03:10:50.353Z,98474.99
2019-03-08T03:13:22.675Z,98465.19
2019-03-08T03:15:54.970Z,98475.45
2019-03-08T03:18:26.307Z,98466.14
2019-03-08T03:20:57.559Z,98468.64
2019-03-08T03:23:28.766Z,98468.75
2019-03-08T03:26:01.567Z,98467.66
2019-03-08T03:28:34.539Z,98464.03
2019-03-08T03:31:11.108Z,98466.34
2019-03-08T03:33:42.201Z,98475.69
2019-03-08T03:36:14.683Z,98472.30
2019-03-08T03:38:48.392Z,98479.34
2019-03-08T03:41:19.609Z,98478.34
2019-03-08T03:43:54.876Z,98471.47
2019-03-08T03:46:31.242Z,98466.03
2019-03-08T03:49:09.243Z,98477.80
2019-03-08T03:51:43.061Z,98474.53
2019-03-08T03:54:15.323Z,98470.47
2019-03-08T03:56:47.376Z,98471.73
2019-03-08T03:59:21.070Z,98457.86
2019-03-08T04:01:53.798Z,98470.22
2019-03-08T04:04:27.751Z,98475.46
2019-03-08T04:07:01.263Z,98467.80
2019-03-08T04:09:32.461Z,98454.47
2019-03-08T04:12:05.531Z,98460.80
2019-03-08T04:14:37.982Z,98469.68
2019-03-08T04:17:09.268Z,98467.17
2019-03-08T04:19:40.507Z,98467.38
2019-03-08T04:22:14.313Z,98466.75
2019-03-08T04:24:47.369Z,98455.45
2019-03-08T04:27:20.942Z,98465.58
2019-03-08T04:29:52.154Z,98460.64
2019-03-08T04:32:23.387Z,98470.60
2019-03-08T04:34:54.594Z,98464.61
2019-03-08T04:37:25.841Z,98456.64
2019-03-08T04:39:57.012Z,98440.66
2019-03-08T04:42:29.906Z,98455.88
2019-03-08T04:45:04.713Z,98438.02
2019-03-08T04:47:37.618Z,98447.86
2019-03-08T04:50:11.872Z,98476.16
2019-03-08T04:52:45.011Z,98465.44
2019-03-08T04:55:20.888Z,98475.48
2019-03-08T04:57:52.941Z,98469.92
2019-03-08T05:00:27.252Z,98470.03
2019-03-08T05:02:58.575Z,98480.78
2019-03-08T05:05:32.561Z,98474.19
2019-03-08T05:08:03.859Z,98469.40
2019-03-08T05:10:36.986Z,98469.47
2019-03-08T05:13:10.705Z,98463.73
2019-03-08T05:15:43.464Z,98462.92
2019-03-08T05:18:14.741Z,98472.07
2019-03-08T05:20:46.113Z,98470.55
2019-03-08T05:23:17.755Z,98471.91
2019-03-08T05:25:49.123Z,98477.77
2019-03-08T05:28:20.405Z,98480.57
2019-03-08T05:30:55.372Z,98467.89
2019-03-08T05:33:26.621Z,98489.01
2019-03-08T05:35:57.835Z,98492.90
2019-03-08T05:38:33.419Z,98495.79
2019-03-08T05:41:04.956Z,98493.14
2019-03-08T05:43:36.450Z,98497.66
2019-03-08T05:46:08.044Z,98492.72
2019-03-08T05:48:39.857Z,98490.59
2019-03-08T05:51:12.277Z,98488.48
2019-03-08T05:53:43.721Z,98493.39
2019-03-08T05:56:15.820Z,98479.68
2019-03-08T05:58:47.074Z,98488.56
2019-03-08T06:01:18.447Z,98489.00
2019-03-08T06:03:51.257Z,98494.09
2019-03-08T06:06:23.659Z,98494.95
2019-03-08T06:08:55.487Z,98506.97
2019-03-08T06:11:26.674Z,98511.03
2019-03-08T06:13:57.874Z,98509.26
2019-03-08T06:16:30.084Z,98511.73
2019-03-08T06:19:01.386Z,98500.11
2019-03-08T06:21:34.795Z,98506.84
2019-03-08T06:24:05.990Z,98508.78
2019-03-08T06:26:38.796Z,98500.27
2019-03-08T06:29:10.423Z,98490.39
2019-03-08T06:31:42.004Z,98487.33
2019-03-08T06:34:15.652Z,98489.64
2019-03-08T06:36:53.110Z,98498.13
2019-03-08T06:39:25.902Z,98508.66
2019-03-08T06:41:58.445Z,98522.37
2019-03-08T06:44:33.326Z,98512.80
2019-03-08T06:47:07.516Z,98503.90
2019-03-08T06:49:40.891Z,98523.92
2019-03-08T06:52:15.281Z,98507.86
2019-03-08T06:54:48.400Z,98521.33
2019-03-08T06:57:20.491Z,98524.59
2019-03-08T06:59:56.913Z,98524.59
2019-03-08T07:02:30.287Z,98520.11
2019-03-08T07:05:04.717Z,98524.55
2019-03-08T07:07:39.083Z,98515.02
2019-03-08T07:10:10.475Z,98514.50
2019-03-08T07:12:42.160Z,98514.50
2019-03-08T07:15:16.133Z,98513.14
2019-03-08T07:17:47.943Z,98516.36
2019-03-08T07:20:24.786Z,98509.61
2019-03-08T07:23:12.893Z,98515.02
2019-03-08T07:26:03.937Z,98512.39
2019-03-08T07:28:41.510Z,98519.05
2019-03-08T07:31:29.547Z,98508.73
2019-03-08T07:34:14.359Z,98505.73
2019-03-08T07:36:50.915Z,98503.97
2019-03-08T07:39:41.709Z,98501.66
2019-03-08T07:42:27.698Z,98495.41
2019-03-08T07:45:11.245Z,98493.88
2019-03-08T07:48:02.843Z,98499.98
2019-03-08T07:50:38.694Z,98498.03
2019-03-08T07:53:23.352Z,98494.45
2019-03-08T07:56:03.717Z,98502.62
2019-03-08T07:58:40.213Z,98496.75
2019-03-08T08:01:13.370Z,98502.03
2019-03-08T08:03:53.524Z,98516.05
2019-03-08T08:06:32.368Z,98510.42
2019-03-08T08:09:09.982Z,98496.27
2019-03-08T08:11:58.064Z,98496.27
2019-03-08T08:14:39.389Z,98491.69
2019-03-08T08:17:16.078Z,98490.80
2019-03-08T08:19:49.048Z,98490.33
2019-03-08T08:22:23.939Z,98493.22
2019-03-08T08:25:13.822Z,98493.05
2019-03-08T08:27:49.406Z,98494.06
2019-03-08T08:30:22.355Z,98479.64
2019-03-08T08:33:13.418Z,98488.56
2019-03-08T08:35:46.011Z,98493.88
2019-03-08T08:38:21.397Z,98486.50
2019-03-08T08:41:06.539Z,98486.34
2019-03-08T08:43:40.435Z,98489.75
2019-03-08T08:46:13.308Z,98484.67
2019-03-08T08:48:46.594Z,98481.65
2019-03-08T08:51:26.664Z,98479.72
2019-03-08T08:54:03.044Z,98481.43
2019-03-08T08:56:52.178Z,98482.13
2019-03-08T08:59:34.579Z,98494.47
2019-03-08T09:02:17.353Z,98493.39
2019-03-08T09:05:01.153Z,98495.02
2019-03-08T09:07:53.649Z,98491.44
2019-03-08T09:10:43.759Z,98490.34
2019-03-08T09:13:24.220Z,98502.54
2019-03-08T09:15:58.681Z,98487.39
2019-03-08T09:18:38.025Z,98492.71
2019-03-08T09:21:29.394Z,98487.38
2019-03-08T09:24:11.381Z,98496.17
2019-03-08T09:26:50.631Z,98490.15
2019-03-08T09:29:41.194Z,98485.22
2019-03-08T09:32:12.045Z,98486.56
2019-03-08T09:34:45.490Z,98476.56
2019-03-08T09:37:35.440Z,98486.09
2019-03-08T09:40:12.923Z,98483.38
2019-03-08T09:42:45.913Z,98480.01
2019-03-08T09:45:18.927Z,98479.42
2019-03-08T09:49:42.991Z,98476.78
2019-03-08T09:52:16.785Z,98477.30
2019-03-08T09:54:49.648Z,98479.33
2019-03-08T09:57:38.732Z,98473.27
2019-03-08T10:00:14.322Z,98471.73
2019-03-08T10:02:57.074Z,98476.85
2019-03-08T10:05:29.891Z,98475.75
2019-03-08T10:08:18.843Z,98475.38
2019-03-08T10:10:54.082Z,98472.20
2019-03-08T10:13:32.082Z,98473.12
2019-03-08T10:16:04.905Z,98464.02
2019-03-08T10:18:43.811Z,98464.05
2019-03-08T10:21:25.442Z,98466.81
2019-03-08T10:23:58.317Z,98463.03
2019-03-08T10:26:47.554Z,98468.11
2019-03-08T10:29:26.460Z,98469.73
2019-03-08T10:32:03.937Z,98463.58
2019-03-08T10:34:36.777Z,98451.98
2019-03-08T10:37:19.895Z,98454.72
2019-03-08T10:39:55.471Z,98454.53
2019-03-08T10:42:29.380Z,98456.52
2019-03-08T10:45:20.716Z,98460.59
2019-03-08T10:47:59.624Z,98462.12
2019-03-08T10:50:32.946Z,98451.55
2019-03-08T10:53:09.438Z,98444.66
2019-03-08T10:55:54.206Z,98452.78
2019-03-08T10:58:36.122Z,98455.20
2019-03-08T11:03:34.971Z,98451.38
2019-03-08T11:06:09.161Z,98460.79
2019-03-08T11:08:42.091Z,98453.00
2019-03-08T11:11:21.910Z,98404.99
2019-03-08T11:14:11.055Z,98434.30
2019-03-08T11:16:46.898Z,98436.77
2019-03-08T11:19:27.570Z,98427.95
2019-03-08T11:22:00.026Z,98425.19
2019-03-08T11:24:33.829Z,98426.80
2019-03-08T11:27:09.393Z,98422.61
2019-03-08T11:29:43.229Z,98431.19
2019-03-08T11:32:24.893Z,98427.13
2019-03-08T11:35:03.513Z,98427.13
2019-03-08T11:37:36.366Z,98416.27
2019-03-08T11:40:12.507Z,98416.27
2019-03-08T11:42:52.031Z,98417.65
2019-03-08T11:45:26.321Z,98413.49
2019-03-08T11:48:06.584Z,98416.63
2019-03-08T11:50:57.389Z,98417.73
2019-03-08T11:53:30.249Z,98413.73
2019-03-08T11:56:21.401Z,98411.16
2019-03-08T11:58:57.180Z,98410.02
2019-03-08T12:01:30.023Z,98405.05
2019-03-08T12:04:02.852Z,98403.31
2019-03-08T12:06:39.047Z,98395.10
2019-03-08T12:09:32.300Z,98391.33
2019-03-08T12:12:08.635Z,98402.59
2019-03-08T12:14:47.672Z,98402.61
2019-03-08T12:17:23.959Z,98397.88
2019-03-08T12:20:02.654Z,98390.98
2019-03-08T12:22:37.075Z,98396.29
2019-03-08T12:25:19.457Z,98392.75
2019-03-08T12:28:10.321Z,98392.83
2019-03-08T12:31:01.212Z,98386.48
2019-03-08T12:33:36.403Z,98379.34
2019-03-08T12:36:08.967Z,98376.13
2019-03-08T12:38:41.981Z,98373.93
2019-03-08T12:41:14.794Z,98375.19
2019-03-08T12:43:48.079Z,98370.67
2019-03-08T12:46:34.445Z,98349.99
2019-03-08T12:49:07.354Z,98359.91
2019-03-08T12:51:46.013Z,98361.66
2019-03-08T12:54:21.809Z,98355.45
2019-03-08T12:57:03.843Z,98365.92
2019-03-08T12:59:36.706Z,98358.67
2019-03-08T13:02:18.553Z,98368.02
2019-03-08T13:05:03.619Z,98375.64
2019-03-08T13:07:54.708Z,98380.31
2019-03-08T13:10:25.272Z,98377.52
2019-03-08T13:12:57.535Z,98373.23
2019-03-08T13:15:28.813Z,98380.89
2019-03-08T13:18:00.025Z,98374.48
2019-03-08T13:20:31.320Z,98374.34
2019-03-08T13:23:02.708Z,98378.08
2019-03-08T13:25:34.029Z,98375.81
2019-03-08T13:28:05.380Z,98378.39
2019-03-08T13:30:36.616Z,98373.86
2019-03-08T13:33:07.788Z,98370.39
2019-03-08T13:35:39.449Z,98365.84
2019-03-08T13:38:10.645Z,98364.17
2019-03-08T13:40:41.907Z,98368.48
2019-03-08T13:43:13.078Z,98370.23
2019-03-08T13:45:44.405Z,98375.94
2019-03-08T13:48:15.958Z,98363.05
2019-03-08T13:52:30.117Z,98370.37
2019-03-08T13:55:01.359Z,98383.05
2019-03-08T13:57:32.672Z,98379.52
2019-03-08T14:00:06.429Z,98373.20
2019-03-08T14:02:37.729Z,98371.78
2019-03-08T14:05:09.275Z,98380.89
2019-03-08T14:07:40.683Z,98387.27
2019-03-08T14:10:22.877Z,98380.98
2019-03-08T14:12:54.265Z,98389.75
2019-03-08T14:15:25.734Z,98380.03
2019-03-08T14:17:58.176Z,98386.61
2019-03-08T14:20:29.583Z,98388.80
2019-03-08T14:23:00.908Z,98387.78
2019-03-08T14:25:33.692Z,98384.14
2019-03-08T14:28:05.023Z,98383.02
2019-03-08T14:30:45.159Z,98382.95
2019-03-08T14:33:16.915Z,98376.47
2019-03-08T14:35:49.694Z,98384.83
2019-03-08T14:38:20.944Z,98373.45
2019-03-08T14:40:57.422Z,98381.22
2019-03-08T14:43:31.505Z,98395.41
2019-03-08T14:46:13.152Z,98393.80
2019-03-08T14:48:46.352Z,98392.19
2019-03-08T14:51:17.662Z,98393.87
2019-03-08T14:53:48.850Z,98394.47
2019-03-08T14:56:21.558Z,98395.62
2019-03-08T14:58:52.829Z,98397.23
2019-03-08T15:01:24.079Z,98397.44
2019-03-08T15:03:56.638Z,98396.73
2019-03-08T15:06:30.246Z,98401.19
2019-03-08T15:09:03.223Z,98401.75
2019-03-08T15:11:37.687Z,98402.13
2019-03-08T15:14:09.040Z,98406.21
2019-03-08T15:16:40.355Z,98406.84
2019-03-08T15:19:12.226Z,98408.50
2019-03-08T15:21:48.381Z,98413.94
2019-03-08T15:24:16.767Z,98401.76
2019-03-08T15:26:48.017Z,98410.77
2019-03-08T15:29:19.387Z,98410.32
2019-03-08T15:31:50.659Z,98405.72
2019-03-08T15:34:23.070Z,98401.95
2019-03-08T15:36:54.336Z,98400.91
2019-03-08T15:39:25.590Z,98404.71
2019-03-08T15:41:58.601Z,98406.38
2019-03-08T15:44:29.893Z,98405.39
2019-03-08T15:47:01.067Z,98409.20
2019-03-08T15:49:32.473Z,98416.28
2019-03-08T15:52:07.604Z,98420.16
2019-03-08T15:54:39.098Z,98420.17
2019-03-08T15:57:10.373Z,98424.01
2019-03-08T15:59:41.552Z,98416.22
2019-03-08T16:02:12.817Z,98431.42
2019-03-08T16:04:45.932Z,98416.55
2019-03-08T16:07:19.105Z,98420.09
2019-03-08T16:09:50.102Z,98423.91
2019-03-08T16:12:21.329Z,98420.94
2019-03-08T16:14:52.837Z,98429.59
2019-03-08T16:17:24.052Z,98430.95
2019-03-08T16:19:58.893Z,98436.39
2019-03-08T16:22:29.804Z,98433.95
2019-03-08T16:25:01.319Z,98438.80
2019-03-08T16:27:32.771Z,98440.16
2019-03-08T16:30:10.706Z,98439.09
2019-03-08T16:32:43.574Z,98448.58
2019-03-08T16:35:14.905Z,98445.87
2019-03-08T16:37:47.855Z,98457.52
2019-03-08T16:40:23.745Z,98462.14
2019-03-08T16:43:03.743Z,98461.02
2019-03-08T16:45:38.106Z,98446.08
2019-03-08T16:48:13.794Z,98441.73
2019-03-08T16:50:49.308Z,98431.64
2019-03-08T16:53:22.088Z,98442.72
2019-03-08T16:56:04.645Z,98445.11
2019-03-08T16:58:49.789Z,98438.30
2019-03-08T17:01:39.152Z,98438.83
2019-03-08T17:04:20.985Z,98429.03
2019-03-08T17:06:59.851Z,98424.09
2019-03-08T17:09:45.564Z,98431.11
2019-03-08T17:12:34.940Z,98430.84
2019-03-08T17:15:08.825Z,98434.36
2019-03-08T17:17:57.986Z,98431.08
2019-03-08T17:20:39.655Z,98429.72
2019-03-08T17:23:18.434Z,98433.53
2019-03-08T17:25:51.251Z,98429.45
2019-03-08T17:28:24.202Z,98430.81
2019-03-08T17:31:03.026Z,98424.29
2019-03-08T17:33:38.967Z,98425.57
2019-03-08T17:36:27.833Z,98441.56
2019-03-08T17:39:03.074Z,98439.94
2019-03-08T17:41:46.803Z,98426.32
2019-03-08T17:44:25.636Z,98411.98
2019-03-08T17:47:14.994Z,98423.64
2019-03-08T17:49:47.846Z,98428.77
2019-03-08T17:52:26.551Z,98431.75
2019-03-08T17:55:11.381Z,98441.52
2019-03-08T17:57:47.202Z,98434.20
2019-03-08T18:00:26.004Z,98428.46
2019-03-08T18:02:59.172Z,98433.07
2019-03-08T18:05:32.044Z,98439.64
2019-03-08T18:08:13.464Z,98449.98
2019-03-08T18:10:47.831Z,98464.13
2019-03-08T18:13:20.680Z,98464.45
2019-03-08T18:15:53.526Z,98474.53
2019-03-08T18:18:49.229Z,98495.16
2019-03-08T18:21:33.940Z,98531.58
2019-03-08T18:24:07.056Z,98527.59
2019-03-08T18:26:54.987Z,98538.23
2019-03-08T18:29:36.873Z,98526.90
2019-03-08T18:32:16.600Z,98536.66
2019-03-08T18:34:59.238Z,98528.24
2019-03-08T18:37:32.133Z,98520.64
2019-03-08T18:40:24.472Z,98515.77
2019-03-08T18:43:00.161Z,98520.39
2019-03-08T18:45:36.616Z,98507.41
2019-03-08T18:48:27.518Z,98502.52
2019-03-08T18:51:01.624Z,98507.43
2019-03-08T18:53:34.780Z,98509.28
2019-03-08T18:56:07.562Z,98506.84
2019-03-08T18:58:41.408Z,98505.48
2019-03-08T19:01:30.533Z,98500.34
2019-03-08T19:04:10.319Z,98504.14
2019-03-08T19:06:57.769Z,98498.73
2019-03-08T19:09:30.611Z,98501.45
2019-03-08T19:12:20.452Z,98492.49
2019-03-08T19:15:05.209Z,98503.34
2019-03-08T19:17:49.740Z,98494.13
2019-03-08T19:20:31.570Z,98489.24
2019-03-08T19:23:04.456Z,98487.88
2019-03-08T19:25:49.405Z,98482.73
2019-03-08T19:28:38.796Z,98487.36
2019-03-08T19:31:15.425Z,98484.92
2019-03-08T19:33:48.273Z,98481.09
2019-03-08T19:36:28.263Z,98487.05
2019-03-08T19:39:01.033Z,98477.03
2019-03-08T19:41:41.141Z,98483.28
2019-03-08T19:44:21.826Z,98485.98
2019-03-08T19:46:54.731Z,98478.66
2019-03-08T19:49:43.662Z,98494.38
2019-03-08T19:52:34.510Z,98492.73
2019-03-08T19:55:10.883Z,98487.08
2019-03-08T19:58:00.265Z,98490.04
2019-03-08T20:00:33.105Z,98487.62
2019-03-08T20:03:05.930Z,98488.41
2019-03-08T20:05:41.435Z,98489.50
2019-03-08T20:08:16.624Z,98488.41
2019-03-08T20:11:01.774Z,98484.08
2019-03-08T20:13:34.719Z,98480.83
2019-03-08T20:16:19.535Z,98495.45
2019-03-08T20:19:10.702Z,98490.84
2019-03-08T20:21:44.589Z,98494.05
2019-03-08T20:24:17.141Z,98508.14
2019-03-08T20:26:49.922Z,98498.94
2019-03-08T20:29:26.637Z,98501.12
2019-03-08T20:32:08.871Z,98501.38
2019-03-08T20:34:57.913Z,98498.39
2019-03-08T20:37:33.578Z,98510.33
2019-03-08T20:40:13.810Z,98506.00
2019-03-08T20:42:49.350Z,98500.60
2019-03-08T20:45:37.708Z,98499.52
2019-03-08T20:48:08.935Z,98509.00
2019-03-08T20:50:40.170Z,98512.80
2019-03-08T20:53:12.433Z,98510.64
2019-03-08T20:55:44.088Z,98513.37
2019-03-08T20:58:15.317Z,98517.42
2019-03-08T21:00:46.524Z,98520.11
2019-03-08T21:03:17.857Z,98533.11
2019-03-08T21:05:50.757Z,98521.23
2019-03-08T21:08:22.076Z,98532.03
2019-03-08T21:10:53.343Z,98540.43
2019-03-08T21:13:24.559Z,98535.28
2019-03-08T21:15:55.963Z,98543.68
2019-03-08T21:18:27.467Z,98548.01
2019-03-08T21:20:58.733Z,98540.14
2019-03-08T21:23:30.418Z,98548.00
2019-03-08T21:26:01.684Z,98544.73
2019-03-08T21:28:32.963Z,98551.23
2019-03-08T21:31:04.323Z,98551.52
2019-03-08T21:33:35.579Z,98552.33
2019-03-08T21:36:06.874Z,98551.50
2019-03-08T21:38:38.351Z,98553.36
2019-03-08T21:41:12.039Z,98551.98
2019-03-08T21:43:43.311Z,98556.61
2019-03-08T21:46:14.551Z,98559.30
2019-03-08T21:48:45.801Z,98558.98
2019-03-08T21:51:19.192Z,98555.19
2019-03-08T21:53:50.404Z,98559.52
2019-03-08T21:56:21.826Z,98554.40
2019-03-08T21:58:54.053Z,98561.70
2019-03-08T22:01:25.301Z,98563.81
2019-03-08T22:04:03.965Z,98564.66
2019-03-08T22:06:36.026Z,98556.23
2019-03-08T22:09:08.873Z,98561.10
2019-03-08T22:11:43.743Z,98560.32
2019-03-08T22:14:16.592Z,98562.77
2019-03-08T22:16:48.823Z,98565.73
2019-03-08T22:19:20.076Z,98563.27
2019-03-08T22:21:51.392Z,98571.66
2019-03-08T22:24:22.640Z,98562.44
2019-03-08T22:26:54.017Z,98563.52
2019-03-08T22:29:25.387Z,98567.03
2019-03-08T22:31:56.646Z,98572.11
2019-03-08T22:34:28.006Z,98577.19
2019-03-08T22:36:59.316Z,98579.34
2019-03-08T22:39:30.522Z,98580.40
2019-03-08T22:42:01.832Z,98590.14
2019-03-08T22:44:33.149Z,98592.84
2019-03-08T22:47:04.462Z,98596.30
2019-03-08T22:49:35.646Z,98606.19
2019-03-08T22:52:06.915Z,98598.87
2019-03-08T22:54:38.061Z,98594.79
2019-03-08T22:57:09.373Z,98593.92
2019-03-08T22:59:40.561Z,98597.70
2019-03-08T23:02:11.771Z,98610.95
2019-03-08T23:04:42.958Z,98606.30
2019-03-08T23:07:14.025Z,98606.78
2019-03-08T23:09:44.448Z,98605.16
2019-03-08T23:12:15.499Z,98612.12
2019-03-08T23:14:47.678Z,98615.05
2019-03-08T23:17:18.904Z,98616.09
2019-03-08T23:19:50.350Z,98617.72
2019-03-08T23:22:22.635Z,98624.99
2019-03-08T23:24:53.766Z,98619.27
2019-03-08T23:27:29.315Z,98625.98
2019-03-08T23:30:01.132Z,98633.53
2019-03-08T23:32:35.104Z,98633.29
2019-03-08T23:35:07.431Z,98630.50
2019-03-08T23:37:38.607Z,98632.09
2019-03-08T23:40:09.882Z,98630.19
2019-03-08T23:42:40.381Z,98636.05
2019-03-08T23:45:12.904Z,98636.55
2019-03-08T23:47:44.147Z,98632.66
2019-03-08T23:50:15.313Z,98632.66
2019-03-08T23:52:48.159Z,98636.69
2019-03-08T23:55:20.318Z,98635.25
2019-03-08T23:57:51.513Z,98640.05
